sensor_id;sensor_type;location;lat;lon;timestamp;P1;durP1;ratioP1;P2;durP2;ratioP2
79526;SDS011;68974;47.754;-3.364;2023-05-14T00:01:41;19.85;;;12.40;;
79526;SDS011;68974;47.754;-3.364;2023-05-14T00:04:06;24.77;;;13.07;;
79526;SDS011;68974;47.754;-3.364;2023-05-14T00:06:31;21.40;;;12.32;;
79526;SDS011;68974;47.754;-3.364;2023-05-14T00:09:00;20.38;;;12.68;;
79526;SDS011;68974;47.754;-3.364;2023-05-14T00:11:25;22.25;;;13.65;;
79526;SDS011;68974;47.754;-3.364;2023-05-14T00:13:50;19.65;;;12.48;;
79526;SDS011;68974;47.754;-3.364;2023-05-14T00:16:16;22.33;;;13.65;;
79526;SDS011;68974;47.754;-3.364;2023-05-14T00:18:41;19.10;;;13.20;;
79526;SDS011;68974;47.754;-3.364;2023-05-14T00:21:06;23.13;;;14.23;;
79526;SDS011;68974;47.754;-3.364;2023-05-14T00:23:32;16.98;;;12.77;;
79526;SDS011;68974;47.754;-3.364;2023-05-14T00:25:57;20.30;;;13.27;;
79526;SDS011;68974;47.754;-3.364;2023-05-14T00:28:23;18.60;;;11.57;;
79526;SDS011;68974;47.754;-3.364;2023-05-14T00:30:48;22.88;;;13.27;;
79526;SDS011;68974;47.754;-3.364;2023-05-14T00:33:13;24.83;;;14.17;;
79526;SDS011;68974;47.754;-3.364;2023-05-14T00:35:39;25.08;;;13.15;;
79526;SDS011;68974;47.754;-3.364;2023-05-14T00:38:04;20.90;;;13.02;;
79526;SDS011;68974;47.754;-3.364;2023-05-14T00:40:30;22.02;;;12.60;;
79526;SDS011;68974;47.754;-3.364;2023-05-14T00:42:55;18.35;;;12.70;;
79526;SDS011;68974;47.754;-3.364;2023-05-14T00:45:21;21.65;;;12.73;;
79526;SDS011;68974;47.754;-3.364;2023-05-14T00:47:47;18.23;;;11.80;;
79526;SDS011;68974;47.754;-3.364;2023-05-14T00:50:13;23.23;;;13.10;;
79526;SDS011;68974;47.754;-3.364;2023-05-14T00:52:40;17.15;;;12.45;;
79526;SDS011;68974;47.754;-3.364;2023-05-14T00:55:06;21.35;;;14.05;;
79526;SDS011;68974;47.754;-3.364;2023-05-14T00:57:33;20.55;;;12.80;;
79526;SDS011;68974;47.754;-3.364;2023-05-14T01:02:25;20.88;;;12.82;;
79526;SDS011;68974;47.754;-3.364;2023-05-14T01:04:51;24.93;;;14.03;;
79526;SDS011;68974;47.754;-3.364;2023-05-14T01:07:29;18.25;;;12.20;;
79526;SDS011;68974;47.754;-3.364;2023-05-14T01:10:12;18.02;;;11.90;;
79526;SDS011;68974;47.754;-3.364;2023-05-14T01:15:35;22.20;;;13.13;;
79526;SDS011;68974;47.754;-3.364;2023-05-14T01:18:07;22.75;;;13.07;;
79526;SDS011;68974;47.754;-3.364;2023-05-14T01:20:34;21.92;;;14.00;;
79526;SDS011;68974;47.754;-3.364;2023-05-14T01:23:00;27.75;;;12.93;;
79526;SDS011;68974;47.754;-3.364;2023-05-14T01:25:26;19.30;;;11.93;;
79526;SDS011;68974;47.754;-3.364;2023-05-14T01:27:56;18.88;;;12.98;;
79526;SDS011;68974;47.754;-3.364;2023-05-14T01:30:26;21.02;;;13.23;;
79526;SDS011;68974;47.754;-3.364;2023-05-14T01:32:56;25.33;;;13.82;;
79526;SDS011;68974;47.754;-3.364;2023-05-14T01:35:27;18.55;;;12.70;;
79526;SDS011;68974;47.754;-3.364;2023-05-14T01:37:58;21.10;;;12.90;;
79526;SDS011;68974;47.754;-3.364;2023-05-14T01:40:25;20.73;;;12.52;;
79526;SDS011;68974;47.754;-3.364;2023-05-14T01:42:51;20.23;;;12.20;;
79526;SDS011;68974;47.754;-3.364;2023-05-14T01:45:20;17.58;;;13.18;;
79526;SDS011;68974;47.754;-3.364;2023-05-14T01:47:46;21.77;;;13.95;;
79526;SDS011;68974;47.754;-3.364;2023-05-14T01:50:12;18.35;;;11.68;;
79526;SDS011;68974;47.754;-3.364;2023-05-14T01:52:37;20.60;;;13.93;;
79526;SDS011;68974;47.754;-3.364;2023-05-14T01:55:02;22.20;;;13.60;;
79526;SDS011;68974;47.754;-3.364;2023-05-14T01:57:29;19.10;;;12.88;;
79526;SDS011;68974;47.754;-3.364;2023-05-14T01:59:54;17.63;;;11.95;;
79526;SDS011;68974;47.754;-3.364;2023-05-14T02:02:20;21.52;;;13.70;;
79526;SDS011;68974;47.754;-3.364;2023-05-14T02:04:45;21.23;;;13.73;;
79526;SDS011;68974;47.754;-3.364;2023-05-14T02:07:11;22.92;;;13.57;;
79526;SDS011;68974;47.754;-3.364;2023-05-14T02:09:36;17.50;;;13.63;;
79526;SDS011;68974;47.754;-3.364;2023-05-14T02:12:01;20.33;;;13.52;;
79526;SDS011;68974;47.754;-3.364;2023-05-14T02:14:27;21.38;;;14.35;;
79526;SDS011;68974;47.754;-3.364;2023-05-14T02:16:52;19.55;;;12.73;;
79526;SDS011;68974;47.754;-3.364;2023-05-14T02:19:18;22.95;;;13.27;;
79526;SDS011;68974;47.754;-3.364;2023-05-14T02:21:43;21.92;;;14.05;;
79526;SDS011;68974;47.754;-3.364;2023-05-14T02:24:08;21.80;;;13.15;;
79526;SDS011;68974;47.754;-3.364;2023-05-14T02:26:34;20.13;;;13.45;;
79526;SDS011;68974;47.754;-3.364;2023-05-14T02:28:59;21.33;;;14.45;;
79526;SDS011;68974;47.754;-3.364;2023-05-14T02:31:25;17.13;;;12.13;;
79526;SDS011;68974;47.754;-3.364;2023-05-14T02:33:50;20.35;;;13.10;;
79526;SDS011;68974;47.754;-3.364;2023-05-14T02:36:15;20.58;;;13.40;;
79526;SDS011;68974;47.754;-3.364;2023-05-14T02:38:41;19.30;;;12.98;;
79526;SDS011;68974;47.754;-3.364;2023-05-14T02:41:06;25.08;;;12.98;;
79526;SDS011;68974;47.754;-3.364;2023-05-14T02:43:32;19.13;;;12.50;;
79526;SDS011;68974;47.754;-3.364;2023-05-14T02:45:57;21.15;;;13.77;;
79526;SDS011;68974;47.754;-3.364;2023-05-14T02:48:22;19.17;;;12.52;;
79526;SDS011;68974;47.754;-3.364;2023-05-14T02:50:48;22.73;;;13.85;;
79526;SDS011;68974;47.754;-3.364;2023-05-14T02:53:15;19.70;;;13.98;;
79526;SDS011;68974;47.754;-3.364;2023-05-14T02:55:40;21.92;;;13.38;;
79526;SDS011;68974;47.754;-3.364;2023-05-14T02:58:06;17.23;;;12.15;;
79526;SDS011;68974;47.754;-3.364;2023-05-14T03:00:31;19.73;;;12.25;;
79526;SDS011;68974;47.754;-3.364;2023-05-14T03:02:57;20.48;;;13.80;;
79526;SDS011;68974;47.754;-3.364;2023-05-14T03:05:22;21.98;;;13.32;;
79526;SDS011;68974;47.754;-3.364;2023-05-14T03:07:49;19.83;;;12.27;;
79526;SDS011;68974;47.754;-3.364;2023-05-14T03:10:15;18.48;;;13.38;;
79526;SDS011;68974;47.754;-3.364;2023-05-14T03:12:40;18.63;;;12.98;;
79526;SDS011;68974;47.754;-3.364;2023-05-14T03:15:06;22.08;;;12.30;;
79526;SDS011;68974;47.754;-3.364;2023-05-14T03:17:32;18.50;;;11.98;;
79526;SDS011;68974;47.754;-3.364;2023-05-14T03:19:58;18.45;;;12.82;;
79526;SDS011;68974;47.754;-3.364;2023-05-14T03:22:23;18.73;;;12.07;;
79526;SDS011;68974;47.754;-3.364;2023-05-14T03:24:49;17.65;;;12.60;;
79526;SDS011;68974;47.754;-3.364;2023-05-14T03:27:14;18.67;;;13.05;;
79526;SDS011;68974;47.754;-3.364;2023-05-14T03:29:39;16.05;;;11.65;;
79526;SDS011;68974;47.754;-3.364;2023-05-14T03:32:05;18.87;;;12.37;;
79526;SDS011;68974;47.754;-3.364;2023-05-14T03:34:31;22.88;;;14.05;;
79526;SDS011;68974;47.754;-3.364;2023-05-14T03:36:56;20.73;;;12.18;;
79526;SDS011;68974;47.754;-3.364;2023-05-14T03:39:22;19.75;;;13.55;;
79526;SDS011;68974;47.754;-3.364;2023-05-14T03:41:47;19.90;;;12.65;;
79526;SDS011;68974;47.754;-3.364;2023-05-14T03:44:13;23.30;;;13.88;;
79526;SDS011;68974;47.754;-3.364;2023-05-14T03:46:38;19.85;;;12.32;;
79526;SDS011;68974;47.754;-3.364;2023-05-14T03:49:04;23.90;;;12.40;;
79526;SDS011;68974;47.754;-3.364;2023-05-14T03:51:30;21.05;;;12.77;;
79526;SDS011;68974;47.754;-3.364;2023-05-14T03:53:56;19.40;;;12.40;;
79526;SDS011;68974;47.754;-3.364;2023-05-14T03:56:25;20.10;;;12.80;;
79526;SDS011;68974;47.754;-3.364;2023-05-14T03:58:51;20.98;;;12.50;;
79526;SDS011;68974;47.754;-3.364;2023-05-14T04:01:16;20.45;;;13.82;;
79526;SDS011;68974;47.754;-3.364;2023-05-14T04:03:41;18.50;;;13.07;;
79526;SDS011;68974;47.754;-3.364;2023-05-14T04:06:07;17.85;;;12.02;;
79526;SDS011;68974;47.754;-3.364;2023-05-14T04:08:32;18.63;;;12.60;;
79526;SDS011;68974;47.754;-3.364;2023-05-14T04:10:58;19.42;;;13.73;;
79526;SDS011;68974;47.754;-3.364;2023-05-14T04:13:23;18.85;;;12.55;;
79526;SDS011;68974;47.754;-3.364;2023-05-14T04:15:49;22.40;;;12.73;;
79526;SDS011;68974;47.754;-3.364;2023-05-14T04:18:14;21.63;;;12.32;;
79526;SDS011;68974;47.754;-3.364;2023-05-14T04:20:39;20.05;;;11.75;;
79526;SDS011;68974;47.754;-3.364;2023-05-14T04:23:05;18.83;;;13.38;;
79526;SDS011;68974;47.754;-3.364;2023-05-14T04:25:30;16.08;;;11.30;;
79526;SDS011;68974;47.754;-3.364;2023-05-14T04:27:56;22.13;;;13.45;;
79526;SDS011;68974;47.754;-3.364;2023-05-14T04:30:24;18.73;;;11.85;;
79526;SDS011;68974;47.754;-3.364;2023-05-14T04:32:50;19.55;;;12.40;;
79526;SDS011;68974;47.754;-3.364;2023-05-14T04:35:15;18.48;;;12.07;;
79526;SDS011;68974;47.754;-3.364;2023-05-14T04:37:41;19.75;;;13.02;;
79526;SDS011;68974;47.754;-3.364;2023-05-14T04:40:07;17.47;;;11.77;;
79526;SDS011;68974;47.754;-3.364;2023-05-14T04:42:35;17.58;;;11.85;;
79526;SDS011;68974;47.754;-3.364;2023-05-14T04:45:01;17.60;;;12.00;;
79526;SDS011;68974;47.754;-3.364;2023-05-14T04:47:26;15.85;;;11.50;;
79526;SDS011;68974;47.754;-3.364;2023-05-14T04:49:51;16.97;;;12.17;;
79526;SDS011;68974;47.754;-3.364;2023-05-14T04:52:17;17.30;;;12.05;;
79526;SDS011;68974;47.754;-3.364;2023-05-14T04:54:42;18.10;;;12.10;;
79526;SDS011;68974;47.754;-3.364;2023-05-14T04:57:07;15.88;;;10.70;;
79526;SDS011;68974;47.754;-3.364;2023-05-14T04:59:33;16.20;;;11.55;;
79526;SDS011;68974;47.754;-3.364;2023-05-14T05:01:58;18.95;;;11.75;;
79526;SDS011;68974;47.754;-3.364;2023-05-14T05:04:24;16.05;;;12.00;;
79526;SDS011;68974;47.754;-3.364;2023-05-14T05:06:50;14.63;;;10.98;;
79526;SDS011;68974;47.754;-3.364;2023-05-14T05:09:16;14.50;;;10.30;;
79526;SDS011;68974;47.754;-3.364;2023-05-14T05:11:41;16.58;;;11.55;;
79526;SDS011;68974;47.754;-3.364;2023-05-14T05:14:07;16.70;;;10.95;;
79526;SDS011;68974;47.754;-3.364;2023-05-14T05:16:32;15.83;;;11.30;;
79526;SDS011;68974;47.754;-3.364;2023-05-14T05:18:58;15.55;;;11.38;;
79526;SDS011;68974;47.754;-3.364;2023-05-14T05:21:23;16.55;;;12.15;;
79526;SDS011;68974;47.754;-3.364;2023-05-14T05:23:48;16.70;;;11.35;;
79526;SDS011;68974;47.754;-3.364;2023-05-14T05:26:14;17.67;;;12.18;;
79526;SDS011;68974;47.754;-3.364;2023-05-14T05:28:39;15.98;;;11.38;;
79526;SDS011;68974;47.754;-3.364;2023-05-14T05:31:05;16.90;;;12.17;;
79526;SDS011;68974;47.754;-3.364;2023-05-14T05:33:30;14.88;;;11.07;;
79526;SDS011;68974;47.754;-3.364;2023-05-14T05:35:55;13.60;;;10.07;;
79526;SDS011;68974;47.754;-3.364;2023-05-14T05:38:21;13.50;;;9.98;;
79526;SDS011;68974;47.754;-3.364;2023-05-14T05:40:46;10.50;;;8.52;;
79526;SDS011;68974;47.754;-3.364;2023-05-14T05:43:13;14.38;;;9.38;;
79526;SDS011;68974;47.754;-3.364;2023-05-14T05:45:39;15.40;;;9.90;;
79526;SDS011;68974;47.754;-3.364;2023-05-14T05:48:05;12.68;;;9.60;;
79526;SDS011;68974;47.754;-3.364;2023-05-14T05:50:30;12.30;;;9.07;;
79526;SDS011;68974;47.754;-3.364;2023-05-14T05:52:56;13.57;;;9.70;;
79526;SDS011;68974;47.754;-3.364;2023-05-14T05:55:23;10.98;;;9.30;;
79526;SDS011;68974;47.754;-3.364;2023-05-14T05:57:49;10.52;;;8.30;;
79526;SDS011;68974;47.754;-3.364;2023-05-14T06:00:15;13.18;;;9.80;;
79526;SDS011;68974;47.754;-3.364;2023-05-14T06:02:41;13.57;;;9.15;;
79526;SDS011;68974;47.754;-3.364;2023-05-14T06:05:07;13.68;;;9.45;;
79526;SDS011;68974;47.754;-3.364;2023-05-14T06:07:33;12.15;;;8.98;;
79526;SDS011;68974;47.754;-3.364;2023-05-14T06:09:59;12.25;;;9.00;;
79526;SDS011;68974;47.754;-3.364;2023-05-14T06:12:24;10.60;;;9.15;;
79526;SDS011;68974;47.754;-3.364;2023-05-14T06:14:50;12.50;;;8.93;;
79526;SDS011;68974;47.754;-3.364;2023-05-14T06:17:15;11.63;;;8.43;;
79526;SDS011;68974;47.754;-3.364;2023-05-14T06:19:41;10.02;;;8.35;;
79526;SDS011;68974;47.754;-3.364;2023-05-14T06:22:06;12.35;;;8.57;;
79526;SDS011;68974;47.754;-3.364;2023-05-14T06:24:32;10.23;;;8.30;;
79526;SDS011;68974;47.754;-3.364;2023-05-14T06:26:57;10.98;;;8.75;;
79526;SDS011;68974;47.754;-3.364;2023-05-14T06:29:23;11.25;;;8.15;;
79526;SDS011;68974;47.754;-3.364;2023-05-14T06:31:49;10.27;;;8.43;;
79526;SDS011;68974;47.754;-3.364;2023-05-14T06:34:15;12.65;;;7.90;;
79526;SDS011;68974;47.754;-3.364;2023-05-14T06:36:41;9.30;;;8.00;;
79526;SDS011;68974;47.754;-3.364;2023-05-14T06:39:06;11.43;;;8.30;;
79526;SDS011;68974;47.754;-3.364;2023-05-14T06:41:32;9.48;;;8.10;;
79526;SDS011;68974;47.754;-3.364;2023-05-14T06:43:57;10.82;;;8.35;;
79526;SDS011;68974;47.754;-3.364;2023-05-14T06:46:22;11.45;;;7.85;;
79526;SDS011;68974;47.754;-3.364;2023-05-14T06:48:48;9.63;;;8.63;;
79526;SDS011;68974;47.754;-3.364;2023-05-14T06:51:13;10.65;;;8.30;;
79526;SDS011;68974;47.754;-3.364;2023-05-14T06:53:39;10.50;;;8.85;;
79526;SDS011;68974;47.754;-3.364;2023-05-14T06:56:04;10.07;;;8.27;;
79526;SDS011;68974;47.754;-3.364;2023-05-14T06:58:30;12.07;;;8.00;;
79526;SDS011;68974;47.754;-3.364;2023-05-14T07:00:57;10.32;;;7.75;;
79526;SDS011;68974;47.754;-3.364;2023-05-14T07:03:22;9.02;;;7.43;;
79526;SDS011;68974;47.754;-3.364;2023-05-14T07:05:48;9.10;;;7.00;;
79526;SDS011;68974;47.754;-3.364;2023-05-14T07:08:13;9.02;;;8.10;;
79526;SDS011;68974;47.754;-3.364;2023-05-14T07:10:39;9.07;;;7.00;;
79526;SDS011;68974;47.754;-3.364;2023-05-14T07:13:04;8.95;;;6.95;;
79526;SDS011;68974;47.754;-3.364;2023-05-14T07:15:30;9.38;;;7.28;;
79526;SDS011;68974;47.754;-3.364;2023-05-14T07:17:55;9.80;;;7.65;;
79526;SDS011;68974;47.754;-3.364;2023-05-14T07:20:21;7.22;;;6.15;;
79526;SDS011;68974;47.754;-3.364;2023-05-14T07:22:48;8.52;;;6.45;;
79526;SDS011;68974;47.754;-3.364;2023-05-14T07:25:14;6.75;;;5.72;;
79526;SDS011;68974;47.754;-3.364;2023-05-14T07:27:39;8.15;;;6.28;;
79526;SDS011;68974;47.754;-3.364;2023-05-14T07:30:05;7.97;;;5.95;;
79526;SDS011;68974;47.754;-3.364;2023-05-14T07:32:31;8.07;;;6.70;;
79526;SDS011;68974;47.754;-3.364;2023-05-14T07:34:57;8.40;;;6.50;;
79526;SDS011;68974;47.754;-3.364;2023-05-14T07:37:23;16.50;;;7.85;;
79526;SDS011;68974;47.754;-3.364;2023-05-14T07:39:50;10.45;;;6.93;;
79526;SDS011;68974;47.754;-3.364;2023-05-14T07:42:15;7.53;;;5.95;;
79526;SDS011;68974;47.754;-3.364;2023-05-14T07:44:41;7.25;;;6.50;;
79526;SDS011;68974;47.754;-3.364;2023-05-14T07:47:06;8.50;;;6.93;;
79526;SDS011;68974;47.754;-3.364;2023-05-14T07:49:32;8.07;;;5.75;;
79526;SDS011;68974;47.754;-3.364;2023-05-14T07:51:58;7.68;;;6.88;;
79526;SDS011;68974;47.754;-3.364;2023-05-14T07:54:24;7.55;;;6.20;;
79526;SDS011;68974;47.754;-3.364;2023-05-14T07:56:49;7.97;;;6.20;;
79526;SDS011;68974;47.754;-3.364;2023-05-14T07:59:14;8.55;;;6.18;;
79526;SDS011;68974;47.754;-3.364;2023-05-14T08:01:40;7.53;;;6.05;;
79526;SDS011;68974;47.754;-3.364;2023-05-14T08:04:06;7.22;;;5.60;;
79526;SDS011;68974;47.754;-3.364;2023-05-14T08:06:31;7.07;;;5.00;;
79526;SDS011;68974;47.754;-3.364;2023-05-14T08:08:57;5.57;;;4.93;;
79526;SDS011;68974;47.754;-3.364;2023-05-14T08:11:22;6.13;;;4.88;;
79526;SDS011;68974;47.754;-3.364;2023-05-14T08:13:48;5.78;;;5.28;;
79526;SDS011;68974;47.754;-3.364;2023-05-14T08:16:13;5.90;;;5.28;;
79526;SDS011;68974;47.754;-3.364;2023-05-14T08:18:39;6.47;;;5.75;;
79526;SDS011;68974;47.754;-3.364;2023-05-14T08:21:05;6.85;;;5.15;;
79526;SDS011;68974;47.754;-3.364;2023-05-14T08:23:30;6.60;;;4.95;;
79526;SDS011;68974;47.754;-3.364;2023-05-14T08:25:56;7.05;;;5.10;;
79526;SDS011;68974;47.754;-3.364;2023-05-14T08:28:21;6.50;;;5.38;;
79526;SDS011;68974;47.754;-3.364;2023-05-14T08:30:46;6.13;;;4.65;;
79526;SDS011;68974;47.754;-3.364;2023-05-14T08:33:12;5.72;;;4.95;;
79526;SDS011;68974;47.754;-3.364;2023-05-14T08:35:37;5.07;;;4.57;;
79526;SDS011;68974;47.754;-3.364;2023-05-14T08:38:03;6.15;;;5.05;;
79526;SDS011;68974;47.754;-3.364;2023-05-14T08:40:28;13.52;;;8.90;;
79526;SDS011;68974;47.754;-3.364;2023-05-14T08:42:54;6.38;;;5.10;;
79526;SDS011;68974;47.754;-3.364;2023-05-14T08:45:23;4.60;;;4.00;;
79526;SDS011;68974;47.754;-3.364;2023-05-14T08:47:57;5.15;;;4.30;;
79526;SDS011;68974;47.754;-3.364;2023-05-14T08:50:25;5.95;;;3.97;;
79526;SDS011;68974;47.754;-3.364;2023-05-14T08:52:51;7.47;;;4.28;;
79526;SDS011;68974;47.754;-3.364;2023-05-14T08:55:17;4.25;;;3.60;;
79526;SDS011;68974;47.754;-3.364;2023-05-14T08:57:43;3.85;;;3.50;;
79526;SDS011;68974;47.754;-3.364;2023-05-14T09:00:10;4.45;;;3.80;;
79526;SDS011;68974;47.754;-3.364;2023-05-14T09:02:37;4.53;;;4.13;;
79526;SDS011;68974;47.754;-3.364;2023-05-14T09:05:04;4.63;;;4.00;;
79526;SDS011;68974;47.754;-3.364;2023-05-14T09:07:31;3.88;;;3.53;;
79526;SDS011;68974;47.754;-3.364;2023-05-14T09:09:57;4.20;;;3.80;;
79526;SDS011;68974;47.754;-3.364;2023-05-14T09:12:23;7.22;;;5.05;;
79526;SDS011;68974;47.754;-3.364;2023-05-14T09:14:49;5.35;;;3.80;;
79526;SDS011;68974;47.754;-3.364;2023-05-14T09:17:15;4.00;;;3.60;;
79526;SDS011;68974;47.754;-3.364;2023-05-14T09:19:41;5.95;;;3.70;;
79526;SDS011;68974;47.754;-3.364;2023-05-14T09:22:11;5.65;;;3.72;;
79526;SDS011;68974;47.754;-3.364;2023-05-14T09:24:37;4.22;;;3.38;;
79526;SDS011;68974;47.754;-3.364;2023-05-14T09:27:03;5.30;;;3.92;;
79526;SDS011;68974;47.754;-3.364;2023-05-14T09:31:56;4.20;;;3.42;;
79526;SDS011;68974;47.754;-3.364;2023-05-14T09:34:23;4.57;;;3.88;;
79526;SDS011;68974;47.754;-3.364;2023-05-14T09:36:53;5.35;;;4.85;;
79526;SDS011;68974;47.754;-3.364;2023-05-14T09:39:21;5.53;;;4.50;;
79526;SDS011;68974;47.754;-3.364;2023-05-14T09:41:47;5.03;;;4.20;;
79526;SDS011;68974;47.754;-3.364;2023-05-14T09:44:13;4.47;;;3.95;;
79526;SDS011;68974;47.754;-3.364;2023-05-14T09:46:39;7.00;;;4.13;;
79526;SDS011;68974;47.754;-3.364;2023-05-14T09:49:04;6.97;;;3.97;;
79526;SDS011;68974;47.754;-3.364;2023-05-14T09:51:30;6.38;;;4.10;;
79526;SDS011;68974;47.754;-3.364;2023-05-14T09:53:56;6.75;;;4.43;;
79526;SDS011;68974;47.754;-3.364;2023-05-14T09:56:21;4.22;;;3.83;;
79526;SDS011;68974;47.754;-3.364;2023-05-14T09:58:47;4.43;;;4.03;;
79526;SDS011;68974;47.754;-3.364;2023-05-14T10:01:13;6.00;;;4.13;;
79526;SDS011;68974;47.754;-3.364;2023-05-14T10:03:42;5.13;;;3.72;;
79526;SDS011;68974;47.754;-3.364;2023-05-14T10:06:08;4.50;;;4.10;;
79526;SDS011;68974;47.754;-3.364;2023-05-14T10:08:36;5.68;;;4.30;;
79526;SDS011;68974;47.754;-3.364;2023-05-14T10:11:07;5.55;;;4.43;;
79526;SDS011;68974;47.754;-3.364;2023-05-14T10:13:38;8.43;;;5.25;;
79526;SDS011;68974;47.754;-3.364;2023-05-14T10:16:11;5.78;;;4.70;;
79526;SDS011;68974;47.754;-3.364;2023-05-14T10:18:46;4.80;;;4.32;;
79526;SDS011;68974;47.754;-3.364;2023-05-14T10:21:17;3.83;;;3.50;;
79526;SDS011;68974;47.754;-3.364;2023-05-14T10:23:45;6.38;;;4.60;;
79526;SDS011;68974;47.754;-3.364;2023-05-14T10:26:12;6.30;;;4.88;;
79526;SDS011;68974;47.754;-3.364;2023-05-14T10:28:38;6.03;;;4.10;;
79526;SDS011;68974;47.754;-3.364;2023-05-14T10:31:03;6.03;;;4.22;;
79526;SDS011;68974;47.754;-3.364;2023-05-14T10:33:29;4.78;;;4.05;;
79526;SDS011;68974;47.754;-3.364;2023-05-14T10:38:31;7.72;;;4.82;;
79526;SDS011;68974;47.754;-3.364;2023-05-14T10:40:58;5.00;;;3.90;;
79526;SDS011;68974;47.754;-3.364;2023-05-14T10:43:25;4.68;;;4.28;;
79526;SDS011;68974;47.754;-3.364;2023-05-14T10:45:58;4.28;;;3.42;;
79526;SDS011;68974;47.754;-3.364;2023-05-14T10:48:24;4.90;;;3.33;;
79526;SDS011;68974;47.754;-3.364;2023-05-14T10:50:50;6.40;;;5.65;;
79526;SDS011;68974;47.754;-3.364;2023-05-14T10:53:17;4.90;;;3.90;;
79526;SDS011;68974;47.754;-3.364;2023-05-14T10:55:43;31.60;;;13.70;;
79526;SDS011;68974;47.754;-3.364;2023-05-14T10:58:09;7.43;;;4.72;;
79526;SDS011;68974;47.754;-3.364;2023-05-14T11:00:35;6.90;;;5.20;;
79526;SDS011;68974;47.754;-3.364;2023-05-14T11:03:05;27.80;;;19.85;;
79526;SDS011;68974;47.754;-3.364;2023-05-14T11:05:31;8.85;;;7.07;;
79526;SDS011;68974;47.754;-3.364;2023-05-14T11:07:59;13.63;;;6.88;;
79526;SDS011;68974;47.754;-3.364;2023-05-14T11:10:29;43.92;;;18.38;;
79526;SDS011;68974;47.754;-3.364;2023-05-14T11:12:56;81.03;;;37.25;;
79526;SDS011;68974;47.754;-3.364;2023-05-14T11:15:24;240.23;;;155.43;;
79526;SDS011;68974;47.754;-3.364;2023-05-14T11:17:51;121.88;;;83.30;;
79526;SDS011;68974;47.754;-3.364;2023-05-14T11:20:17;51.45;;;43.03;;
79526;SDS011;68974;47.754;-3.364;2023-05-14T11:22:44;14.27;;;12.55;;
79526;SDS011;68974;47.754;-3.364;2023-05-14T11:25:11;6.45;;;5.15;;
79526;SDS011;68974;47.754;-3.364;2023-05-14T11:27:42;5.38;;;4.22;;
79526;SDS011;68974;47.754;-3.364;2023-05-14T11:32:38;5.68;;;4.03;;
79526;SDS011;68974;47.754;-3.364;2023-05-14T11:35:04;5.90;;;4.40;;
79526;SDS011;68974;47.754;-3.364;2023-05-14T11:37:29;153.93;;;39.90;;
79526;SDS011;68974;47.754;-3.364;2023-05-14T11:39:58;8.85;;;4.60;;
79526;SDS011;68974;47.754;-3.364;2023-05-14T11:42:24;8.45;;;5.30;;
79526;SDS011;68974;47.754;-3.364;2023-05-14T11:44:50;5.40;;;4.40;;
79526;SDS011;68974;47.754;-3.364;2023-05-14T11:47:18;5.13;;;4.63;;
79526;SDS011;68974;47.754;-3.364;2023-05-14T11:49:45;5.70;;;5.00;;
79526;SDS011;68974;47.754;-3.364;2023-05-14T11:52:12;4.63;;;4.22;;
79526;SDS011;68974;47.754;-3.364;2023-05-14T11:54:39;4.80;;;3.92;;
79526;SDS011;68974;47.754;-3.364;2023-05-14T11:57:10;6.88;;;4.85;;
79526;SDS011;68974;47.754;-3.364;2023-05-14T11:59:40;5.63;;;4.55;;
79526;SDS011;68974;47.754;-3.364;2023-05-14T12:02:13;5.70;;;4.70;;
79526;SDS011;68974;47.754;-3.364;2023-05-14T12:04:41;6.03;;;5.18;;
79526;SDS011;68974;47.754;-3.364;2023-05-14T12:07:09;7.13;;;4.88;;
79526;SDS011;68974;47.754;-3.364;2023-05-14T12:09:36;6.53;;;4.95;;
79526;SDS011;68974;47.754;-3.364;2023-05-14T12:12:10;5.07;;;4.57;;
79526;SDS011;68974;47.754;-3.364;2023-05-14T12:14:37;4.70;;;4.18;;
79526;SDS011;68974;47.754;-3.364;2023-05-14T12:17:15;8.75;;;5.28;;
79526;SDS011;68974;47.754;-3.364;2023-05-14T12:19:45;7.07;;;5.35;;
79526;SDS011;68974;47.754;-3.364;2023-05-14T12:22:16;6.03;;;4.75;;
79526;SDS011;68974;47.754;-3.364;2023-05-14T12:24:46;7.70;;;4.70;;
79526;SDS011;68974;47.754;-3.364;2023-05-14T12:27:20;7.03;;;5.43;;
79526;SDS011;68974;47.754;-3.364;2023-05-14T12:29:46;5.90;;;5.25;;
79526;SDS011;68974;47.754;-3.364;2023-05-14T12:32:11;5.25;;;3.97;;
79526;SDS011;68974;47.754;-3.364;2023-05-14T12:34:38;6.80;;;5.05;;
79526;SDS011;68974;47.754;-3.364;2023-05-14T12:37:04;4.45;;;3.97;;
79526;SDS011;68974;47.754;-3.364;2023-05-14T12:39:31;5.82;;;4.70;;
79526;SDS011;68974;47.754;-3.364;2023-05-14T12:41:57;6.03;;;5.10;;
79526;SDS011;68974;47.754;-3.364;2023-05-14T12:44:23;5.88;;;4.88;;
79526;SDS011;68974;47.754;-3.364;2023-05-14T12:46:48;6.07;;;4.93;;
79526;SDS011;68974;47.754;-3.364;2023-05-14T12:49:14;7.60;;;5.57;;
79526;SDS011;68974;47.754;-3.364;2023-05-14T12:51:39;6.35;;;5.05;;
79526;SDS011;68974;47.754;-3.364;2023-05-14T12:54:05;5.07;;;4.25;;
79526;SDS011;68974;47.754;-3.364;2023-05-14T12:56:30;6.28;;;5.00;;
79526;SDS011;68974;47.754;-3.364;2023-05-14T12:58:56;6.60;;;5.18;;
79526;SDS011;68974;47.754;-3.364;2023-05-14T13:01:21;6.40;;;4.97;;
79526;SDS011;68974;47.754;-3.364;2023-05-14T13:03:48;6.68;;;4.47;;
79526;SDS011;68974;47.754;-3.364;2023-05-14T13:06:14;5.65;;;4.80;;
79526;SDS011;68974;47.754;-3.364;2023-05-14T13:08:39;6.78;;;4.53;;
79526;SDS011;68974;47.754;-3.364;2023-05-14T13:11:05;6.75;;;4.57;;
79526;SDS011;68974;47.754;-3.364;2023-05-14T13:13:30;5.28;;;4.30;;
79526;SDS011;68974;47.754;-3.364;2023-05-14T13:15:56;5.05;;;4.07;;
79526;SDS011;68974;47.754;-3.364;2023-05-14T13:18:21;5.75;;;5.15;;
79526;SDS011;68974;47.754;-3.364;2023-05-14T13:20:47;4.63;;;4.22;;
79526;SDS011;68974;47.754;-3.364;2023-05-14T13:23:12;8.20;;;5.00;;
79526;SDS011;68974;47.754;-3.364;2023-05-14T13:25:38;7.13;;;5.10;;
79526;SDS011;68974;47.754;-3.364;2023-05-14T13:28:04;9.05;;;5.15;;
79526;SDS011;68974;47.754;-3.364;2023-05-14T13:30:29;5.28;;;4.38;;
79526;SDS011;68974;47.754;-3.364;2023-05-14T13:32:56;5.50;;;4.13;;
79526;SDS011;68974;47.754;-3.364;2023-05-14T13:35:21;6.53;;;3.63;;
79526;SDS011;68974;47.754;-3.364;2023-05-14T13:37:47;5.38;;;3.47;;
79526;SDS011;68974;47.754;-3.364;2023-05-14T13:40:12;4.80;;;3.85;;
79526;SDS011;68974;47.754;-3.364;2023-05-14T13:42:38;5.90;;;3.33;;
79526;SDS011;68974;47.754;-3.364;2023-05-14T13:45:06;4.28;;;3.15;;
79526;SDS011;68974;47.754;-3.364;2023-05-14T13:47:33;5.40;;;4.13;;
79526;SDS011;68974;47.754;-3.364;2023-05-14T13:49:58;5.53;;;4.07;;
79526;SDS011;68974;47.754;-3.364;2023-05-14T13:52:24;3.17;;;2.88;;
79526;SDS011;68974;47.754;-3.364;2023-05-14T13:54:49;3.00;;;2.58;;
79526;SDS011;68974;47.754;-3.364;2023-05-14T13:57:15;2.08;;;1.85;;
79526;SDS011;68974;47.754;-3.364;2023-05-14T13:59:40;2.45;;;2.20;;
79526;SDS011;68974;47.754;-3.364;2023-05-14T14:02:06;2.97;;;2.60;;
79526;SDS011;68974;47.754;-3.364;2023-05-14T14:04:32;4.72;;;2.38;;
79526;SDS011;68974;47.754;-3.364;2023-05-14T14:06:58;2.70;;;2.50;;
79526;SDS011;68974;47.754;-3.364;2023-05-14T14:09:23;3.92;;;2.25;;
79526;SDS011;68974;47.754;-3.364;2023-05-14T14:11:49;2.47;;;2.28;;
79526;SDS011;68974;47.754;-3.364;2023-05-14T14:14:15;4.55;;;2.45;;
79526;SDS011;68974;47.754;-3.364;2023-05-14T14:16:41;3.15;;;2.30;;
79526;SDS011;68974;47.754;-3.364;2023-05-14T14:19:06;2.97;;;2.42;;
79526;SDS011;68974;47.754;-3.364;2023-05-14T14:21:32;2.97;;;2.78;;
79526;SDS011;68974;47.754;-3.364;2023-05-14T14:23:59;4.90;;;3.15;;
79526;SDS011;68974;47.754;-3.364;2023-05-14T14:26:25;4.55;;;2.90;;
79526;SDS011;68974;47.754;-3.364;2023-05-14T14:28:51;4.05;;;2.45;;
79526;SDS011;68974;47.754;-3.364;2023-05-14T14:31:17;3.53;;;3.17;;